Strona główna
METAR-TAF:

METAR-TAF

Lotnisko :

Brunei, Brunei

Port lotniczy Brunei

Szerokość geograficzna: 04-56N, Długość geograficzna: 114-56E, wysokość: 22 m

Aktualna obserwacja pogody

Raport powstał 10 minut temu, godzina 19:00 UTC
Wiatr 1 kt od wschód
Temperatura 26°C
Wilgotność 94%
Ciśnienie 1009 hPa
Widzialność 10 km lub więcej
Mało chmury na wysokości 1500 ft
Przerywane chmury na wysokości 30000 ft

METAR: WBSB 261900Z 10001KT 9999 FEW015 BKN300 26/25 Q1009 NOSIG

czas: 03:10 (19:10 UTC)

Prognoza

Raport powstał 2 godziny i 10 minut temu, godzina 17:00 UTC
Prognoza ważna od 26 godzina 18 UTC do 28 godzina 00 UTC
Wiatr 2 kt od północno-północny wschód
Widzialność 10 km lub więcej
Mało chmury na wysokości 1400 ft
Stopniowe zmiany
od 27 godzina 03 UTC do 27 godzina 05 UTC
Wiatr 8 kt od północny zachód
Mało chmury na wysokości 1600 ft
Mało chmury na wysokości 1700 ft, Cumulonimbus.

TAF: WBSB 261700Z 2618/2800 03002KT 9999 FEW014 BECMG 2703/2705 31008KT FEW016 FEW017CB

Obserwacja i prognoza pogody dla ponad 4000 lotnisk (raport METAR i TAF).

Dostępne stacje oznaczono żółtymi i czerwonymi punktami na mapie.

Najedź kursorem aby zobaczyć nazwę stacji.

Kliknij aby zobaczyć obserwacje i prognozy pogody.

Aby zmienić mapę: kliknij na zielony przycisk z czarnym krzyżykiem, aby powiększyć; na zielony przycisk z myślnikiem, aby pomniejszyć; na zielone strzałki, aby przejść do map sąsiednich.


METAR-TAF: